Flight Track Log - Related Links

Times and Time Zones

All times are in EDT time to prevent confusion due to time zone crossing. See the SWA3044 flight status page for this flight to view local times or setup timezone preferences in your user account.

Time Position Orientation Groundspeed Altitude Reporting Facility
EDT Latitude Longitude Course Direction KTS MPH feet Rate Location/Type
Sat 05:26:23 PM 32.9000 -96.9000 25° Northeast 196 226 3,300  Level Dallas / Fort Worth TRACON
Sat 05:27:23 PM 32.9333 -96.9500 308° West 217 250 7,500 2,804 Climbing Dallas / Fort Worth TRACON
Sat 05:29:42 PM 33.0811 -96.9722 353° North 223 257 12,600 2,593 Climbing Fort Worth Center
Sat 05:30:42 PM 33.1664 -96.9344 20° North 327 376 16,100 3,000 Climbing Fort Worth Center
Sat 05:31:00 PM 33.4382 -96.5377 25° Northeast  Level FlightAware Approximate
Sat 05:31:42 PM 33.2581 -96.8644 33° Northeast 364 419 18,600  Level Fort Worth Center
Sat 05:32:42 PM 33.3661 -96.7767 34° Northeast 411 473 21,600 2,550 Climbing Fort Worth Center
Sat 05:33:42 PM 33.4681 -96.6939 34° Northeast 431 496 23,700 2,200 Climbing Fort Worth Center
Sat 05:34:42 PM 33.5719 -96.6083 34° Northeast 443 510 26,000 2,100 Climbing Fort Worth Center
Sat 05:35:42 PM 33.6797 -96.5200 34° Northeast 456 525 27,900 1,850 Climbing Fort Worth Center
Sat 05:36:42 PM 33.7897 -96.4311 34° Northeast 471 542 29,700 1,650 Climbing Fort Worth Center
Sat 05:37:42 PM 33.9017 -96.3375 35° Northeast 481 554 31,200 1,700 Climbing Fort Worth Center
Sat 05:38:42 PM 34.0156 -96.2433 34° Northeast 498 573 33,100 1,650 Climbing Fort Worth Center
Sat 05:39:42 PM 34.1272 -96.1489 35° Northeast 493 567 34,500 1,400 Climbing Fort Worth Center
Sat 05:40:42 PM 34.2411 -96.0569 34° Northeast 493 567 35,900 750 Climbing Fort Worth Center
Sat 05:41:42 PM 34.3547 -95.9594 35° Northeast 488 562 36,000 50 Climbing Fort Worth Center
Sat 05:42:42 PM 34.4683 -95.8619 35° Northeast 493 567 36,000 550 Level Fort Worth Center
Sat 05:43:42 PM 34.5819 -95.7664 35° Northeast 488 562 37,100 1,400 Climbing Fort Worth Center
Sat 05:44:42 PM 34.6850 -95.6811 34° Northeast 481 554 38,800 950 Climbing Fort Worth Center
Sat 05:45:42 PM 34.7944 -95.5906 34° Northeast 469 540 39,000 100 Climbing Fort Worth Center
Sat 05:46:42 PM 34.8933 -95.5100 34° Northeast 469 540 39,000  Level Fort Worth Center
Sat 05:47:42 PM 35.0044 -95.4161 35° Northeast 469 540 39,000  Level Fort Worth Center
Sat 05:48:42 PM 35.1136 -95.3222 35° Northeast 469 540 39,000  Level Fort Worth Center
Sat 05:49:45 PM 35.2381 -95.2178 34° Northeast 469 540 39,000  Level Memphis Center
Sat 05:50:45 PM 35.3439 -95.1247 36° Northeast 469 540 39,000  Level Memphis Center
Sat 05:51:45 PM 35.4517 -95.0314 35° Northeast 469 540 39,000  Level Memphis Center
Sat 05:52:45 PM 35.5594 -94.9378 35° Northeast 469 540 39,000  Level Memphis Center
Sat 05:53:45 PM 35.6692 -94.8442 35° Northeast 469 540 39,000  Level Memphis Center
Sat 05:54:45 PM 35.7769 -94.7478 36° Northeast 469 540 39,000  Level Memphis Center
Sat 05:55:45 PM 35.8844 -94.6561 35° Northeast 469 540 39,000  Level Memphis Center
Sat 05:56:45 PM 35.9919 -94.5617 35° Northeast 469 540 39,000  Level Memphis Center
Sat 05:57:45 PM 36.0994 -94.4644 36° Northeast 469 540 39,000  Level Memphis Center
Sat 06:00:07 PM 36.3364 -94.2531 36° Northeast 471 542 39,000  Level Kansas City Center
Sat 06:01:08 PM 36.4442 -94.1581 35° Northeast 473 544 39,000  Level Kansas City Center
Sat 06:02:10 PM 36.5708 -94.0447 36° Northeast 469 540 39,000  Level Kansas City Center
Sat 06:03:11 PM 36.6767 -93.9511 35° Northeast 467 537 39,000  Level Kansas City Center
Sat 06:04:13 PM 36.7828 -93.8556 36° Northeast 469 540 39,000  Level Kansas City Center
Sat 06:05:14 PM 36.8881 -93.7600 36° Northeast 463 533 39,000  Level Kansas City Center
Sat 06:06:16 PM 36.9919 -93.6639 36° Northeast 463 533 39,000  Level Kansas City Center
Sat 06:07:17 PM 37.0972 -93.5692 36° Northeast 463 533 39,000  Level Kansas City Center
Sat 06:08:19 PM 37.2022 -93.4747 36° Northeast 462 532 39,000  Level Kansas City Center
Sat 06:09:20 PM 37.3083 -93.3783 36° Northeast 467 537 39,000  Level Kansas City Center
Sat 06:10:21 PM 37.4100 -93.2761 39° Northeast 466 536 39,000  Level Kansas City Center
Sat 06:11:23 PM 37.5031 -93.1619 44° Northeast 465 535 39,000  Level Kansas City Center
Sat 06:12:24 PM 37.6175 -93.0300 42° Northeast 463 533 39,000 -49 Level Kansas City Center
Sat 06:13:26 PM 37.7128 -92.9181 43° Northeast 465 535 38,900 -537 Descending Kansas City Center
Sat 06:14:27 PM 37.8078 -92.8067 43° Northeast 464 534 37,900 -927 Descending Kansas City Center
Sat 06:15:29 PM 37.8958 -92.7017 43° Northeast 466 536 37,000 -1,113 Descending Kansas City Center
Sat 06:16:31 PM 37.9725 -92.5653 54° Northeast 478 550 35,600 -1,951 Descending Kansas City Center
Sat 06:17:32 PM 38.0469 -92.4303 55° Northeast 474 545 33,000 -2,244 Descending Kansas City Center
Sat 06:18:34 PM 38.1208 -92.2961 55° Northeast 466 536 31,000 -2,634 Descending Kansas City Center
Sat 06:19:35 PM 38.2014 -92.1425 56° Northeast 452 520 27,600 -2,732 Descending Kansas City Center
Sat 06:20:37 PM 38.2689 -92.0142 56° Northeast 439 505 25,400 -2,146 Descending Kansas City Center
Sat 06:21:38 PM 38.3347 -91.8906 56° Northeast 424 488 23,200 -2,049 Descending Kansas City Center
Sat 06:22:40 PM 38.3983 -91.7717 56° Northeast 409 471 21,200 -1,984 Descending Kansas City Center
Sat 06:23:42 PM 38.4600 -91.6544 56° Northeast 402 463 19,100 -1,951 Descending Kansas City Center
Sat 06:24:43 PM 38.5206 -91.5394 56° Northeast 396 456 17,200 -2,000 Descending Kansas City Center
Sat 06:25:45 PM 38.5811 -91.4244 56° Northeast 392 451 15,000 -2,098 Descending Kansas City Center
Sat 06:26:46 PM 38.6389 -91.3092 57° Northeast 389 448 12,900 -1,512 Descending Kansas City Center
Sat 06:27:48 PM 38.6756 -91.1656 72° East 363 418 11,900 -1,306 Descending Kansas City Center
Sat 06:28:50 PM 38.7139 -91.0583 65° Northeast 345 397 10,200 -1,415 Descending Kansas City Center
Sat 06:29:51 PM 38.7578 -90.9667 58° Northeast 322 371 9,000 -976 Descending Kansas City Center
Sat 06:30:53 PM 38.7678 -90.8775 82° East 277 319 8,200 -1,512 Descending Kansas City Center
Sat 06:31:54 PM 38.7758 -90.7942 83° East 246 283 5,900 -2,146 Descending Kansas City Center
Sat 06:32:56 PM 38.7819 -90.7131 84° East 234 269 3,800 -1,258 Descending Kansas City Center
Sat 06:33:58 PM 38.8194 -90.6597 48° Northeast 217 250 3,300 -390 Descending Kansas City Center
Sat 06:34:59 PM 38.8325 -90.6036 73° East 192 221 3,000 -195 Descending Kansas City Center
Sat 06:36:01 PM 38.8297 -90.5339 93° East 176 203 2,900 -293 Descending Kansas City Center
Sat 06:37:02 PM 38.8050 -90.4831 122° Southeast 173 199 2,400 -585 Descending Kansas City Center
Sat 06:38:04 PM 38.7831 -90.4383 122° Southeast 161 185 1,700 -677 Descending Kansas City Center
Sat 06:39:06 PM 38.7633 -90.3986 122° Southeast 144 166 1,000 -585 Descending Kansas City Center
Sat 06:40:07 PM 38.7453 -90.3625 123° Southeast 139 160 500 -492 Descending Kansas City Center

Login

Don't have an account? Register now (free) for customized features, flight alerts, and more!